createdAt,value
2019-06-26T00:00:29.899Z,26.70
2019-06-26T00:05:35.724Z,26.70
2019-06-26T00:10:41.718Z,26.60
2019-06-26T00:15:47.470Z,26.60
2019-06-26T00:20:53.215Z,26.60
2019-06-26T00:25:59.014Z,26.50
2019-06-26T00:31:04.778Z,26.50
2019-06-26T00:36:10.574Z,26.40
2019-06-26T00:41:16.334Z,26.40
2019-06-26T00:46:22.111Z,26.30
2019-06-26T00:51:27.543Z,26.30
2019-06-26T00:56:33.357Z,26.20
2019-06-26T01:01:39.285Z,26.10
2019-06-26T01:06:44.990Z,26.10
2019-06-26T01:11:50.488Z,26.10
2019-06-26T01:16:56.039Z,26.00
2019-06-26T01:22:01.593Z,26.00
2019-06-26T01:27:07.098Z,25.90
2019-06-26T01:32:12.655Z,25.80
2019-06-26T01:37:18.249Z,25.80
2019-06-26T01:42:23.840Z,25.70
2019-06-26T01:47:29.350Z,25.70
2019-06-26T01:52:35.131Z,25.60
2019-06-26T01:57:40.631Z,26.00
2019-06-26T02:02:46.176Z,25.70
2019-06-26T02:07:51.734Z,25.50
2019-06-26T02:12:57.282Z,25.40
2019-06-26T02:18:02.784Z,25.30
2019-06-26T02:23:08.409Z,25.20
2019-06-26T02:28:14.114Z,25.10
2019-06-26T02:33:19.608Z,25.00
2019-06-26T02:38:25.086Z,25.00
2019-06-26T02:43:30.667Z,24.90
2019-06-26T02:48:36.237Z,24.90
2019-06-26T02:53:41.742Z,24.80
2019-06-26T02:58:47.256Z,24.70
2019-06-26T03:03:52.809Z,24.70
2019-06-26T03:08:58.356Z,24.60
2019-06-26T03:14:04.034Z,24.60
2019-06-26T03:19:09.515Z,24.50
2019-06-26T03:24:15.074Z,24.50
2019-06-26T03:29:20.586Z,24.40
2019-06-26T03:34:26.127Z,24.40
2019-06-26T03:39:31.641Z,24.40
2019-06-26T03:44:37.253Z,24.40
2019-06-26T03:49:42.766Z,24.40
2019-06-26T03:54:48.379Z,24.50
2019-06-26T03:59:54.034Z,24.50
2019-06-26T04:04:59.511Z,24.60
2019-06-26T04:10:05.837Z,24.70
2019-06-26T04:15:11.307Z,24.80
2019-06-26T04:20:16.827Z,24.90
2019-06-26T04:25:22.382Z,25.10
2019-06-26T04:30:27.842Z,25.20
2019-06-26T04:35:33.445Z,25.40
2019-06-26T04:40:39.270Z,25.50
2019-06-26T04:45:57.722Z,25.70
2019-06-26T04:50:52.507Z,26.00
2019-06-26T04:55:58.400Z,26.20
2019-06-26T05:01:04.314Z,26.60
2019-06-26T05:06:10.222Z,27.40
2019-06-26T05:11:16.062Z,27.90
2019-06-26T05:16:21.958Z,28.90
2019-06-26T05:21:27.721Z,30.40
2019-06-26T05:26:33.498Z,31.70
2019-06-26T05:31:39.300Z,33.10
2019-06-26T05:36:45.225Z,34.40
2019-06-26T05:41:51.187Z,35.70
2019-06-26T05:46:56.952Z,36.80
2019-06-26T05:52:02.728Z,37.80
2019-06-26T05:57:08.560Z,38.80
2019-06-26T06:02:14.618Z,39.70
2019-06-26T06:07:20.422Z,40.50
2019-06-26T06:12:26.214Z,41.40
2019-06-26T06:17:31.968Z,42.30
2019-06-26T06:22:37.852Z,43.00
2019-06-26T06:27:43.888Z,43.90
2019-06-26T06:32:49.637Z,44.60
2019-06-26T06:37:55.419Z,45.40
2019-06-26T06:43:01.222Z,46.40
2019-06-26T06:48:08.653Z,47.20
2019-06-26T06:53:14.537Z,48.00
2019-06-26T06:58:20.587Z,48.80
2019-06-26T07:03:26.378Z,49.50
2019-06-26T07:08:32.243Z,50.00
2019-06-26T07:13:38.011Z,50.60
2019-06-26T07:18:43.791Z,51.40
2019-06-26T07:23:49.570Z,52.20
2019-06-26T07:28:55.393Z,52.80
2019-06-26T07:34:01.261Z,53.10
2019-06-26T07:39:07.611Z,53.90
2019-06-26T07:44:13.633Z,54.60
2019-06-26T07:49:19.410Z,55.30
2019-06-26T07:54:25.177Z,56.00
2019-06-26T07:59:30.971Z,56.40
2019-06-26T08:04:36.764Z,56.80
2019-06-26T08:09:42.522Z,57.40
2019-06-26T08:14:48.352Z,58.00
2019-06-26T08:19:54.159Z,58.60
2019-06-26T08:25:00.057Z,59.30
2019-06-26T08:30:06.394Z,59.70
2019-06-26T08:35:12.234Z,60.00
2019-06-26T08:40:17.971Z,60.10
2019-06-26T08:45:23.853Z,60.20
2019-06-26T08:50:29.571Z,60.80
2019-06-26T08:55:35.428Z,61.00
2019-06-26T09:00:41.231Z,61.40
2019-06-26T09:05:48.642Z,61.40
2019-06-26T09:10:54.588Z,61.40
2019-06-26T09:16:00.305Z,61.70
2019-06-26T09:21:06.037Z,62.30
2019-06-26T09:26:11.865Z,63.00
2019-06-26T09:31:17.591Z,63.50
2019-06-26T09:36:23.340Z,64.00
2019-06-26T09:41:29.075Z,63.60
2019-06-26T09:46:34.978Z,62.60
2019-06-26T09:51:40.749Z,61.80
2019-06-26T09:56:46.546Z,60.50
2019-06-26T10:01:52.398Z,57.00
2019-06-26T10:06:58.205Z,52.70
2019-06-26T10:12:04.008Z,49.20
2019-06-26T10:17:09.846Z,46.40
2019-06-26T10:22:15.602Z,44.00
2019-06-26T10:27:21.320Z,42.20
2019-06-26T10:32:27.137Z,40.60
2019-06-26T10:37:32.882Z,39.30
2019-06-26T10:42:38.651Z,38.30
2019-06-26T10:47:44.412Z,37.60
2019-06-26T10:52:50.227Z,37.10
2019-06-26T10:57:56.012Z,36.60
2019-06-26T11:03:01.813Z,36.40
2019-06-26T11:08:07.572Z,36.00
2019-06-26T11:13:13.527Z,35.70
2019-06-26T11:18:19.469Z,35.60
2019-06-26T11:23:25.271Z,35.60
2019-06-26T11:28:31.071Z,35.40
2019-06-26T11:33:36.818Z,35.30
2019-06-26T11:38:42.610Z,35.20
2019-06-26T11:43:48.497Z,35.10
2019-06-26T11:48:54.518Z,35.00
2019-06-26T11:54:00.301Z,35.00
2019-06-26T11:59:06.086Z,34.90
2019-06-26T12:04:12.051Z,34.80
2019-06-26T12:09:18.018Z,34.80
2019-06-26T12:14:23.742Z,34.80
2019-06-26T12:19:29.588Z,34.70
2019-06-26T12:24:35.385Z,34.60
2019-06-26T12:29:41.177Z,34.60
2019-06-26T12:34:47.023Z,34.50
2019-06-26T12:39:52.989Z,34.50
2019-06-26T12:44:58.825Z,34.40
2019-06-26T12:50:04.799Z,34.30
2019-06-26T12:55:10.570Z,34.10
2019-06-26T13:00:16.559Z,33.80
2019-06-26T13:05:22.406Z,33.50
2019-06-26T13:10:28.268Z,33.30
2019-06-26T13:15:34.068Z,33.10
2019-06-26T13:20:52.240Z,33.20
2019-06-26T13:25:47.364Z,33.30
2019-06-26T13:30:53.559Z,33.30
2019-06-26T13:35:59.572Z,33.50
2019-06-26T13:41:05.309Z,33.70
2019-06-26T13:46:11.076Z,33.70
2019-06-26T13:51:16.843Z,33.70
2019-06-26T13:56:22.645Z,33.80
2019-06-26T14:01:28.442Z,33.80
2019-06-26T14:06:34.258Z,33.70
2019-06-26T14:11:40.073Z,33.70
2019-06-26T14:16:46.537Z,33.80
2019-06-26T14:21:52.364Z,33.70
2019-06-26T14:26:58.132Z,33.70
2019-06-26T14:32:04.034Z,33.40
2019-06-26T14:37:09.767Z,33.30
2019-06-26T14:42:15.498Z,33.40
2019-06-26T14:47:21.279Z,33.20
2019-06-26T14:52:27.063Z,33.20
2019-06-26T14:57:33.170Z,33.80
2019-06-26T15:02:38.922Z,33.80
2019-06-26T15:07:44.730Z,33.40
2019-06-26T15:12:50.492Z,33.30
2019-06-26T15:17:56.275Z,33.30
2019-06-26T15:23:02.100Z,33.30
2019-06-26T15:28:10.388Z,33.20
2019-06-26T15:33:15.546Z,33.00
2019-06-26T15:38:21.559Z,33.10
2019-06-26T15:43:27.271Z,33.20
2019-06-26T15:48:33.098Z,33.30
2019-06-26T15:53:38.934Z,33.10
2019-06-26T15:58:44.673Z,33.80
2019-06-26T16:03:50.480Z,33.20
2019-06-26T16:08:56.258Z,32.80
2019-06-26T16:14:02.046Z,32.60
2019-06-26T16:19:12.032Z,32.50
2019-06-26T16:24:17.843Z,32.50
2019-06-26T16:29:23.688Z,32.40
2019-06-26T16:34:29.498Z,32.40
2019-06-26T16:39:35.453Z,32.30
2019-06-26T16:44:41.204Z,32.30
2019-06-26T16:49:47.037Z,32.30
2019-06-26T16:54:52.823Z,32.20
2019-06-26T17:00:08.876Z,32.10
2019-06-26T17:05:06.310Z,32.00
2019-06-26T17:10:13.841Z,31.90
2019-06-26T17:15:19.662Z,31.70
2019-06-26T17:20:25.495Z,31.60
2019-06-26T17:25:31.238Z,31.50
2019-06-26T17:30:36.984Z,31.40
2019-06-26T17:35:42.743Z,31.30
2019-06-26T17:40:48.505Z,31.30
2019-06-26T17:45:54.911Z,31.30
2019-06-26T17:51:00.798Z,31.20
2019-06-26T17:56:06.712Z,31.00
2019-06-26T18:01:12.755Z,31.00
2019-06-26T18:06:18.669Z,30.90
2019-06-26T18:11:24.573Z,30.80
2019-06-26T18:16:30.409Z,30.70
2019-06-26T18:21:36.496Z,30.40
2019-06-26T18:26:42.874Z,30.30
2019-06-26T18:31:49.265Z,30.10
2019-06-26T18:36:56.041Z,29.80
2019-06-26T18:42:02.879Z,29.60
2019-06-26T18:47:09.411Z,29.50
2019-06-26T18:52:17.580Z,29.40
2019-06-26T18:57:24.109Z,30.10
2019-06-26T19:02:30.366Z,29.40
2019-06-26T19:07:36.211Z,29.10
2019-06-26T19:12:41.908Z,28.80
2019-06-26T19:17:47.726Z,29.60
2019-06-26T19:22:54.407Z,28.90
2019-06-26T19:28:03.139Z,28.60
2019-06-26T19:33:09.226Z,28.30
2019-06-26T19:38:15.145Z,28.10
2019-06-26T19:43:21.291Z,27.80
2019-06-26T19:48:27.252Z,27.60
2019-06-26T19:53:32.993Z,27.50
2019-06-26T19:58:38.762Z,27.30
2019-06-26T20:03:44.544Z,27.20
2019-06-26T20:08:56.206Z,27.10
2019-06-26T20:13:57.866Z,26.90
2019-06-26T20:19:03.659Z,26.80
2019-06-26T20:24:09.936Z,26.70
2019-06-26T20:29:17.188Z,26.50
2019-06-26T20:34:23.566Z,26.50
2019-06-26T20:39:29.890Z,26.30
2019-06-26T20:44:38.596Z,27.20
2019-06-26T20:49:53.148Z,26.50
2019-06-26T20:55:00.967Z,26.20
2019-06-26T21:00:06.455Z,26.10
2019-06-26T21:05:12.593Z,25.90
2019-06-26T21:10:18.623Z,25.80
2019-06-26T21:15:25.445Z,25.70
2019-06-26T21:20:31.651Z,25.50
2019-06-26T21:25:37.621Z,25.50
2019-06-26T21:30:45.567Z,25.30
2019-06-26T21:35:52.545Z,26.10
2019-06-26T21:40:58.428Z,25.50
2019-06-26T21:46:04.116Z,25.10
2019-06-26T21:51:09.557Z,24.90
2019-06-26T21:56:15.806Z,24.80
2019-06-26T22:01:23.654Z,24.70
2019-06-26T22:06:30.240Z,24.60
2019-06-26T22:11:37.214Z,24.40
2019-06-26T22:16:43.247Z,24.30
2019-06-26T22:21:49.343Z,24.30
2019-06-26T22:26:58.408Z,24.10
2019-06-26T22:32:04.153Z,24.20
2019-06-26T22:37:10.103Z,24.40
2019-06-26T22:42:15.598Z,24.10
2019-06-26T22:47:21.027Z,24.00
2019-06-26T22:52:26.562Z,23.90
2019-06-26T22:57:32.128Z,23.80
2019-06-26T23:02:37.660Z,23.70
2019-06-26T23:07:43.206Z,23.60
2019-06-26T23:12:48.669Z,23.50
2019-06-26T23:17:54.113Z,23.50
2019-06-26T23:22:59.759Z,23.30
2019-06-26T23:28:05.367Z,23.30
2019-06-26T23:33:10.783Z,23.20
2019-06-26T23:38:16.239Z,23.10
2019-06-26T23:43:21.665Z,23.00
2019-06-26T23:48:27.193Z,22.90
2019-06-26T23:53:32.616Z,22.80
2019-06-26T23:58:38.078Z,22.70
